Time;durP1;ratioP1;P1;durP2;ratioP2;P2;SDS_P1;SDS_P2;PMS_P1;PMS_P2;Temp;Humidity;BMP_temperature;BMP_pressure;BME280_temperature;BME280_humidity;BME280_pressure;Samples;Min_cycle;Max_cycle;Signal;HPM_P1;HPM_P2
2023/10/16 00:01:29;;;;;;;;;;;9.00;99.90;;;;;;7320683;19;9536;-82
2023/10/16 00:03:58;;;;;;;;;;;9.00;99.90;;;;;;7317968;19;9305;-82
2023/10/16 00:06:27;;;;;;;;;;;8.80;99.90;;;;;;7323659;19;9302;-81
2023/10/16 00:09:03;;;;;;;;;;;8.80;99.90;;;;;;7318986;19;9333;-82
2023/10/16 00:11:31;;;;;;;;;;;8.70;99.90;;;;;;7318079;19;9501;-82
2023/10/16 00:14:13;;;;;;;;;;;8.50;99.90;;;;;;7318294;19;9571;-82
2023/10/16 00:16:44;;;;;;;;;;;8.50;99.90;;;;;;7320109;19;9473;-82
2023/10/16 00:19:13;;;;;;;;;;;8.50;99.90;;;;;;7321902;19;9449;-82
2023/10/16 00:21:46;;;;;;;;;;;8.40;99.90;;;;;;7318227;19;9285;-82
2023/10/16 00:24:15;;;;;;;;;;;8.30;99.90;;;;;;7318579;19;9642;-82
2023/10/16 00:26:49;;;;;;;;;;;8.30;99.90;;;;;;7321442;19;9262;-82
2023/10/16 00:29:24;;;;;;;;;;;8.10;99.90;;;;;;7319607;19;9133;-82
2023/10/16 00:31:58;;;;;;;;;;;8.10;99.90;;;;;;7318635;19;9297;-82
2023/10/16 00:34:28;;;;;;;;;;;8.00;99.90;;;;;;7313156;19;9324;-81
2023/10/16 00:36:57;;;;;;;;;;;7.90;99.90;;;;;;7316151;19;9477;-82
2023/10/16 00:39:28;;;;;;;;;;;7.80;99.90;;;;;;7320684;19;10299;-82
2023/10/16 00:41:59;;;;;;;;;;;7.90;99.90;;;;;;7316342;19;10337;-82
2023/10/16 00:44:33;;;;;;;;;;;7.90;99.90;;;;;;7315521;19;9157;-82
2023/10/16 00:47:04;;;;;;;;;;;7.80;99.90;;;;;;7318416;19;10381;-82
2023/10/16 00:49:35;;;;;;;;;;;7.80;99.90;;;;;;7319923;19;9455;-82
2023/10/16 00:52:06;;;;;;;;;;;7.90;99.90;;;;;;7319236;19;9254;-82
2023/10/16 00:54:39;;;;;;;;;;;8.00;99.90;;;;;;7319466;19;9222;-82
2023/10/16 00:57:10;;;;;;;;;;;8.00;99.90;;;;;;7318590;19;9359;-82
2023/10/16 00:59:42;;;;;;;;;;;8.10;99.90;;;;;;7319491;19;9319;-82
2023/10/16 01:02:14;;;;;;;;;;;8.20;99.90;;;;;;7317274;19;9250;-82
2023/10/16 01:04:44;;;;;;;;;;;8.30;99.90;;;;;;7316120;19;9543;-82
2023/10/16 01:07:14;;;;;;;;;;;8.30;99.90;;;;;;7318218;19;9413;-83
2023/10/16 01:09:43;;;;;;;;;;;8.30;99.90;;;;;;7318515;19;9283;-83
2023/10/16 01:12:12;;;;;;;;;;;8.40;99.90;;;;;;7318684;19;9257;-83
2023/10/16 01:14:44;;;;;;;;;;;8.40;99.90;;;;;;7317996;19;9437;-82
2023/10/16 01:17:13;;;;;;;;;;;8.50;99.90;;;;;;7317754;19;9453;-82
2023/10/16 01:19:44;;;;;;;;;;;8.60;99.90;;;;;;7316148;19;10413;-82
2023/10/16 01:22:13;;;;;;;;;;;8.70;99.90;;;;;;7319922;19;9504;-82
2023/10/16 01:24:48;;;;;;;;;;;8.70;99.90;;;;;;7320123;19;9367;-82
2023/10/16 01:27:26;;;;;;;;;;;8.60;99.90;;;;;;7318865;19;9298;-82
2023/10/16 01:29:56;;;;;;;;;;;8.60;99.90;;;;;;7316793;19;10109;-81
2023/10/16 01:32:25;;;;;;;;;;;8.70;99.90;;;;;;7318962;19;9341;-81
2023/10/16 01:34:55;;;;;;;;;;;9.00;99.90;;;;;;7315560;19;9474;-81
2023/10/16 01:37:25;;;;;;;;;;;8.90;99.90;;;;;;7318665;19;9475;-82
2023/10/16 01:40:13;;;;;;;;;;;9.00;99.90;;;;;;7317313;19;9407;-82
2023/10/16 01:42:42;;;;;;;;;;;9.00;99.90;;;;;;7318408;19;9636;-82
2023/10/16 01:45:12;;;;;;;;;;;9.00;99.90;;;;;;7319250;19;9482;-82
2023/10/16 01:47:41;;;;;;;;;;;8.80;99.90;;;;;;7316245;19;9274;-81
2023/10/16 01:50:23;;;;;;;;;;;8.70;99.90;;;;;;7319152;19;9386;-83
2023/10/16 01:52:54;;;;;;;;;;;8.70;99.90;;;;;;7313791;19;9634;-82
2023/10/16 01:55:27;;;;;;;;;;;8.90;99.90;;;;;;7320008;19;9167;-82
2023/10/16 01:57:59;;;;;;;;;;;9.10;99.90;;;;;;7317310;19;13753;-82
2023/10/16 02:00:34;;;;;;;;;;;9.10;99.90;;;;;;7320385;19;9314;-82
2023/10/16 02:03:08;;;;;;;;;;;9.30;99.90;;;;;;7318665;19;9225;-82
2023/10/16 02:05:40;;;;;;;;;;;9.60;99.90;;;;;;7316916;19;9556;-82
2023/10/16 02:08:12;;;;;;;;;;;9.70;99.90;;;;;;7318195;19;9234;-82
2023/10/16 02:10:44;;;;;;;;;;;9.50;99.90;;;;;;7311203;19;9270;-81
2023/10/16 02:13:14;;;;;;;;;;;9.30;99.90;;;;;;7313487;19;11361;-82
2023/10/16 02:15:42;;;;;;;;;;;9.30;99.90;;;;;;7317809;19;9257;-82
2023/10/16 02:18:18;;;;;;;;;;;9.30;99.90;;;;;;7318170;19;9321;-81
2023/10/16 02:20:49;;;;;;;;;;;9.40;99.90;;;;;;7316707;19;9474;-82
2023/10/16 02:23:18;;;;;;;;;;;9.40;99.90;;;;;;7314852;19;9240;-82
2023/10/16 02:25:49;;;;;;;;;;;9.50;99.90;;;;;;7316033;19;9130;-82
2023/10/16 02:28:19;;;;;;;;;;;9.50;99.90;;;;;;7317177;19;9190;-82
2023/10/16 02:30:49;;;;;;;;;;;9.50;99.90;;;;;;7317856;19;9650;-82
2023/10/16 02:33:26;;;;;;;;;;;9.60;99.90;;;;;;7315507;19;9439;-82
2023/10/16 02:35:57;;;;;;;;;;;9.50;99.90;;;;;;7314195;19;9636;-82
2023/10/16 02:38:27;;;;;;;;;;;9.60;99.90;;;;;;7315335;19;9449;-81
2023/10/16 02:41:04;;;;;;;;;;;9.60;99.90;;;;;;7316869;19;9514;-82
2023/10/16 02:43:37;;;;;;;;;;;9.50;99.90;;;;;;7313684;19;9262;-82
2023/10/16 02:46:09;;;;;;;;;;;9.50;99.90;;;;;;7313925;19;12106;-82
2023/10/16 02:48:38;;;;;;;;;;;9.40;99.90;;;;;;7316414;19;9469;-81
2023/10/16 02:51:06;;;;;;;;;;;9.30;99.90;;;;;;7315365;19;9464;-83
2023/10/16 02:53:36;;;;;;;;;;;9.30;99.90;;;;;;7316519;19;9529;-82
2023/10/16 02:56:08;;;;;;;;;;;9.20;99.90;;;;;;7316347;19;9308;-82
2023/10/16 02:58:42;;;;;;;;;;;9.20;99.90;;;;;;7317255;19;9316;-82
2023/10/16 03:01:18;;;;;;;;;;;9.10;99.90;;;;;;7316066;19;9633;-82
2023/10/16 03:03:48;;;;;;;;;;;9.10;99.90;;;;;;7315923;19;9421;-83
2023/10/16 03:06:18;;;;;;;;;;;9.00;99.90;;;;;;7314788;19;9366;-82
2023/10/16 03:08:48;;;;;;;;;;;8.90;99.90;;;;;;7315713;19;9454;-82
2023/10/16 03:11:21;;;;;;;;;;;8.90;99.90;;;;;;7313398;19;9214;-82
2023/10/16 03:13:51;;;;;;;;;;;9.00;99.90;;;;;;7316249;19;9574;-82
2023/10/16 03:16:26;;;;;;;;;;;8.90;99.90;;;;;;7313294;19;9533;-83
2023/10/16 03:19:04;;;;;;;;;;;8.90;99.90;;;;;;7313479;19;9262;-83
2023/10/16 03:21:34;;;;;;;;;;;8.90;99.90;;;;;;7317715;19;10704;-82
2023/10/16 03:24:04;;;;;;;;;;;8.90;99.90;;;;;;7316970;19;9146;-82
2023/10/16 03:26:41;;;;;;;;;;;8.90;99.90;;;;;;7316107;19;9630;-82
2023/10/16 03:29:10;;;;;;;;;;;8.60;99.90;;;;;;7317583;19;12509;-83
2023/10/16 03:31:39;;;;;;;;;;;8.50;99.90;;;;;;7317773;19;9307;-83
2023/10/16 03:34:11;;;;;;;;;;;8.40;99.90;;;;;;7311950;19;9640;-83
2023/10/16 03:36:40;;;;;;;;;;;8.30;99.90;;;;;;7314508;19;9281;-83
2023/10/16 03:39:12;;;;;;;;;;;8.30;99.90;;;;;;7313884;19;9523;-83
2023/10/16 03:41:44;;;;;;;;;;;8.40;99.90;;;;;;7315029;19;9483;-82
2023/10/16 03:44:18;;;;;;;;;;;8.50;99.90;;;;;;7313556;19;9491;-83
2023/10/16 03:46:48;;;;;;;;;;;8.50;99.90;;;;;;7309669;19;9372;-83
2023/10/16 03:49:18;;;;;;;;;;;8.60;99.90;;;;;;7315087;19;9276;-83
2023/10/16 03:51:48;;;;;;;;;;;8.60;99.90;;;;;;7315074;19;11195;-83
2023/10/16 03:54:30;;;;;;;;;;;8.50;99.90;;;;;;7316067;19;10086;-83
2023/10/16 03:57:03;;;;;;;;;;;8.50;99.90;;;;;;7314999;19;9299;-83
2023/10/16 03:59:32;;;;;;;;;;;8.50;99.90;;;;;;7314606;19;9233;-83
2023/10/16 04:02:04;;;;;;;;;;;8.40;99.90;;;;;;7312711;19;9253;-83
2023/10/16 04:04:33;;;;;;;;;;;8.40;99.90;;;;;;7316283;19;9638;-83
2023/10/16 04:07:03;;;;;;;;;;;8.40;99.90;;;;;;7312533;19;9462;-83
2023/10/16 04:09:33;;;;;;;;;;;8.50;99.90;;;;;;7313761;19;9179;-82
2023/10/16 04:12:06;;;;;;;;;;;8.40;99.90;;;;;;7312693;19;9237;-83
2023/10/16 04:17:23;;;;;;;;;;;8.20;99.90;;;;;;7314775;19;10428;-83
2023/10/16 04:19:53;;;;;;;;;;;8.20;99.90;;;;;;7314787;19;9307;-83
2023/10/16 04:22:24;;;;;;;;;;;8.10;99.90;;;;;;7319198;19;9634;-83
2023/10/16 04:24:54;;;;;;;;;;;8.10;99.90;;;;;;7319678;19;9304;-83
2023/10/16 04:27:33;;;;;;;;;;;8.00;99.90;;;;;;7320493;19;9043;-83
2023/10/16 04:30:32;;;;;;;;;;;8.00;99.90;;;;;;7320526;19;10970;-82
2023/10/16 04:33:13;;;;;;;;;;;7.90;99.90;;;;;;7318938;19;9254;-83
2023/10/16 04:44:22;;;;;;;;;;;7.80;99.90;;;;;;7319281;19;9366;-83
2023/10/16 04:47:01;;;;;;;;;;;7.80;99.90;;;;;;7316016;19;9178;-82
2023/10/16 04:49:28;;;;;;;;;;;7.80;99.90;;;;;;7320195;19;9537;-82
2023/10/16 04:52:01;;;;;;;;;;;7.90;99.90;;;;;;7317967;19;9545;-82
2023/10/16 04:54:51;;;;;;;;;;;7.90;99.90;;;;;;7320486;19;9443;-83
2023/10/16 05:00:12;;;;;;;;;;;7.90;99.90;;;;;;7320376;19;9201;-83
2023/10/16 05:02:51;;;;;;;;;;;7.80;99.90;;;;;;7319845;19;9297;-82
2023/10/16 05:05:46;;;;;;;;;;;7.70;99.90;;;;;;7319088;19;9321;-82
2023/10/16 05:13:54;;;;;;;;;;;7.60;99.90;;;;;;7318864;19;9445;-82
2023/10/16 05:16:36;;;;;;;;;;;7.60;99.90;;;;;;7320146;19;9485;-83
2023/10/16 05:19:30;;;;;;;;;;;7.60;99.90;;;;;;7321240;19;9314;-83
2023/10/16 05:22:02;;;;;;;;;;;7.70;99.90;;;;;;7320062;19;9233;-83
2023/10/16 06:15:48;;;;;;;;;;;9.10;99.90;;;;;;7318092;19;9113;-75
2023/10/16 06:18:17;;;;;;;;;;;9.00;99.90;;;;;;7318874;19;9399;-76
2023/10/16 06:20:52;;;;;;;;;;;9.00;99.90;;;;;;7319643;19;9545;-77
2023/10/16 06:23:21;;;;;;;;;;;9.00;99.90;;;;;;7311913;19;9534;-81
2023/10/16 06:25:50;;;;;;;;;;;8.90;99.90;;;;;;7315817;19;9242;-82
2023/10/16 06:28:19;;;;;;;;;;;9.00;99.90;;;;;;7314911;19;9102;-82
2023/10/16 06:30:48;;;;;;;;;;;9.00;99.90;;;;;;7318673;19;9245;-82
2023/10/16 06:33:18;;;;;;;;;;;9.00;99.90;;;;;;7320647;19;9269;-81
2023/10/16 06:35:52;;;;;;;;;;;9.00;99.90;;;;;;7319156;19;9290;-82
2023/10/16 06:38:23;;;;;;;;;;;9.00;99.90;;;;;;7320170;19;10320;-82
2023/10/16 06:40:57;;;;;;;;;;;8.80;99.90;;;;;;7317575;19;9328;-82
2023/10/16 06:43:26;;;;;;;;;;;8.90;99.90;;;;;;7317850;19;9435;-82
2023/10/16 06:46:09;;;;;;;;;;;9.00;99.90;;;;;;7314331;19;9531;-82
2023/10/16 06:48:40;;;;;;;;;;;9.10;99.90;;;;;;7317319;19;9448;-82
2023/10/16 06:51:15;;;;;;;;;;;9.10;99.90;;;;;;7318187;19;9496;-82
2023/10/16 06:53:45;;;;;;;;;;;9.20;99.90;;;;;;7319032;19;9241;-82
2023/10/16 06:56:27;;;;;;;;;;;9.20;99.90;;;;;;7316936;19;9550;-82
2023/10/16 06:58:59;;;;;;;;;;;9.10;99.90;;;;;;7316635;19;9454;-82
2023/10/16 07:01:28;;;;;;;;;;;9.10;99.90;;;;;;7317461;19;9609;-82
2023/10/16 07:03:57;;;;;;;;;;;9.50;99.90;;;;;;7315023;19;9375;-82
2023/10/16 07:06:32;;;;;;;;;;;9.60;99.90;;;;;;7319589;19;9465;-82
2023/10/16 07:09:03;;;;;;;;;;;9.70;99.90;;;;;;7317160;19;11453;-82
2023/10/16 07:11:33;;;;;;;;;;;9.80;99.90;;;;;;7318375;19;9520;-82
2023/10/16 07:14:02;;;;;;;;;;;9.70;99.90;;;;;;7317084;19;9552;-81
2023/10/16 07:16:33;;;;;;;;;;;9.60;99.90;;;;;;7318081;19;9246;-82
2023/10/16 07:19:03;;;;;;;;;;;9.50;99.90;;;;;;7318951;19;9279;-82
2023/10/16 07:21:34;;;;;;;;;;;9.40;99.90;;;;;;7319011;19;9602;-81
2023/10/16 07:24:04;;;;;;;;;;;9.20;99.90;;;;;;7312748;19;9525;-82
2023/10/16 07:26:34;;;;;;;;;;;9.20;99.90;;;;;;7316444;19;9673;-82
2023/10/16 07:29:05;;;;;;;;;;;9.20;99.90;;;;;;7319005;19;9320;-82
2023/10/16 07:31:34;;;;;;;;;;;9.20;99.90;;;;;;7315040;19;9391;-82
2023/10/16 07:34:04;;;;;;;;;;;9.10;99.90;;;;;;7317397;19;10833;-81
2023/10/16 07:36:35;;;;;;;;;;;9.40;99.90;;;;;;7318416;19;9519;-81
2023/10/16 07:39:05;;;;;;;;;;;9.50;99.90;;;;;;7311294;19;9496;-82
2023/10/16 07:41:37;;;;;;;;;;;9.40;99.90;;;;;;7313600;19;9863;-82
2023/10/16 07:44:07;;;;;;;;;;;9.40;99.90;;;;;;7317737;19;9400;-82
2023/10/16 07:46:38;;;;;;;;;;;9.50;99.90;;;;;;7317367;19;9400;-81
2023/10/16 07:49:15;;;;;;;;;;;9.60;99.90;;;;;;7316875;19;9841;-81
2023/10/16 07:51:52;;;;;;;;;;;9.60;99.90;;;;;;7315420;19;9117;-81
2023/10/16 07:54:23;;;;;;;;;;;9.70;99.90;;;;;;7313757;19;9332;-81
2023/10/16 07:56:52;;;;;;;;;;;9.60;99.90;;;;;;7318670;19;9035;-82
2023/10/16 07:59:21;;;;;;;;;;;9.70;99.90;;;;;;7321680;19;10994;-81
2023/10/16 08:01:57;;;;;;;;;;;9.70;99.90;;;;;;7321741;19;9304;-82
2023/10/16 08:04:37;;;;;;;;;;;9.50;99.90;;;;;;7323540;19;10386;-81
2023/10/16 08:07:16;;;;;;;;;;;9.50;99.90;;;;;;7320817;19;9245;-82
2023/10/16 08:09:57;;;;;;;;;;;9.70;99.90;;;;;;7322512;19;9245;-82
2023/10/16 08:12:36;;;;;;;;;;;9.80;99.90;;;;;;7321946;19;9463;-81
2023/10/16 08:15:14;;;;;;;;;;;9.90;99.90;;;;;;7321903;19;9282;-81
2023/10/16 08:17:45;;;;;;;;;;;10.20;99.90;;;;;;7323629;19;9486;-81
2023/10/16 08:20:19;;;;;;;;;;;10.30;99.90;;;;;;7320660;19;10679;-81
2023/10/16 08:22:52;;;;;;;;;;;10.70;99.90;;;;;;7322863;19;9260;-81
2023/10/16 08:25:34;;;;;;;;;;;10.80;99.90;;;;;;7321591;19;9572;-82
2023/10/16 08:28:19;;;;;;;;;;;11.10;99.90;;;;;;7323104;19;9479;-81
2023/10/16 08:30:53;;;;;;;;;;;11.40;99.90;;;;;;7320539;19;9409;-81
2023/10/16 08:33:30;;;;;;;;;;;11.70;99.90;;;;;;7320614;19;9271;-81
2023/10/16 08:36:00;;;;;;;;;;;11.70;99.90;;;;;;7320013;19;9295;-82
2023/10/16 08:38:36;;;;;;;;;;;11.50;99.90;;;;;;7320407;19;9378;-83
2023/10/16 08:41:14;;;;;;;;;;;11.40;99.90;;;;;;7319339;19;9450;-83
2023/10/16 08:44:03;;;;;;;;;;;11.40;99.90;;;;;;7320610;19;9218;-82
2023/10/16 08:46:35;;;;;;;;;;;11.20;99.90;;;;;;7319315;19;9167;-82
2023/10/16 08:49:08;;;;;;;;;;;10.90;99.90;;;;;;7317083;19;10234;-82
2023/10/16 08:51:38;;;;;;;;;;;10.60;99.90;;;;;;7323026;19;9643;-82
2023/10/16 08:56:53;;;;;;;;;;;10.50;99.90;;;;;;7321092;19;9251;-82
2023/10/16 08:59:26;;;;;;;;;;;10.60;99.90;;;;;;7318364;19;10392;-82
2023/10/16 09:01:57;;;;;;;;;;;10.70;99.90;;;;;;7320506;19;9563;-81
2023/10/16 09:04:29;;;;;;;;;;;10.70;99.90;;;;;;7321620;19;10436;-82
2023/10/16 09:06:58;;;;;;;;;;;10.70;99.90;;;;;;7321794;19;9499;-82
2023/10/16 09:09:31;;;;;;;;;;;10.80;99.90;;;;;;7312932;19;9551;-82
2023/10/16 09:12:04;;;;;;;;;;;10.80;99.90;;;;;;7320785;19;9336;-81
2023/10/16 09:14:33;;;;;;;;;;;10.90;99.90;;;;;;7321313;19;10381;-81
2023/10/16 09:17:06;;;;;;;;;;;11.00;99.90;;;;;;7321031;19;9178;-82
2023/10/16 09:19:35;;;;;;;;;;;11.10;99.90;;;;;;7319268;19;9123;-82
2023/10/16 09:22:08;;;;;;;;;;;11.20;99.90;;;;;;7321409;19;9317;-82
2023/10/16 09:24:43;;;;;;;;;;;11.40;99.90;;;;;;7319598;19;9284;-82
2023/10/16 09:27:17;;;;;;;;;;;11.50;99.90;;;;;;7322827;19;9393;-82
2023/10/16 09:29:53;;;;;;;;;;;11.50;99.90;;;;;;7319306;19;9543;-82
2023/10/16 09:32:25;;;;;;;;;;;11.60;99.90;;;;;;7320528;19;9480;-82
2023/10/16 09:34:57;;;;;;;;;;;11.70;99.90;;;;;;7316718;19;9481;-81
2023/10/16 09:37:34;;;;;;;;;;;11.70;99.90;;;;;;7319442;19;11988;-81
2023/10/16 09:40:35;;;;;;;;;;;12.00;99.90;;;;;;7319602;19;9309;-81
2023/10/16 09:43:12;;;;;;;;;;;12.10;99.90;;;;;;7321324;19;9116;-81
2023/10/16 09:45:46;;;;;;;;;;;12.30;99.90;;;;;;7321194;19;9549;-81
2023/10/16 09:48:19;;;;;;;;;;;12.30;99.90;;;;;;7320185;19;10630;-82
2023/10/16 09:50:48;;;;;;;;;;;12.00;99.90;;;;;;7318603;19;9192;-81
2023/10/16 09:53:20;;;;;;;;;;;11.80;99.90;;;;;;7315643;19;10347;-80
2023/10/16 09:56:02;;;;;;;;;;;11.80;99.90;;;;;;7314143;19;9293;-79
2023/10/16 09:58:37;;;;;;;;;;;11.70;99.90;;;;;;7315489;19;10370;-80
2023/10/16 10:01:13;;;;;;;;;;;11.70;99.90;;;;;;7314220;19;9462;-81
2023/10/16 10:03:44;;;;;;;;;;;11.70;99.90;;;;;;7313752;19;9248;-76
2023/10/16 10:06:20;;;;;;;;;;;11.50;99.90;;;;;;7318651;19;9287;-80
2023/10/16 10:11:58;;;;;;;;;;;11.50;99.90;;;;;;7316876;19;9266;-82
2023/10/16 10:14:39;;;;;;;;;;;11.60;99.90;;;;;;7320045;19;9625;-81
2023/10/16 10:17:19;;;;;;;;;;;11.60;99.90;;;;;;7315629;19;11282;-72
2023/10/16 10:19:55;;;;;;;;;;;11.80;99.90;;;;;;7298078;19;9817;-81
2023/10/16 10:22:27;;;;;;;;;;;11.90;99.90;;;;;;7314671;19;9322;-80
2023/10/16 10:25:11;;;;;;;;;;;11.90;99.90;;;;;;7319266;19;10572;-81
2023/10/16 10:27:47;;;;;;;;;;;12.00;99.90;;;;;;7316876;19;9242;-80
2023/10/16 10:30:25;;;;;;;;;;;12.10;99.90;;;;;;7316810;19;10041;-81
2023/10/16 10:32:55;;;;;;;;;;;12.20;99.90;;;;;;7319523;19;9284;-82
2023/10/16 10:35:29;;;;;;;;;;;12.30;99.90;;;;;;7318716;19;9225;-85
2023/10/16 10:38:17;;;;;;;;;;;12.50;99.90;;;;;;7317284;19;9486;-82
2023/10/16 10:41:18;;;;;;;;;;;12.50;99.90;;;;;;7318235;19;9228;-80
2023/10/16 10:44:03;;;;;;;;;;;12.80;99.90;;;;;;7317303;19;9374;-78
2023/10/16 10:46:37;;;;;;;;;;;12.90;99.90;;;;;;7315130;19;9433;-85
2023/10/16 10:49:07;;;;;;;;;;;13.00;99.90;;;;;;7310842;19;9261;-87
2023/10/16 10:51:36;;;;;;;;;;;13.00;99.90;;;;;;7316649;19;9328;-85
2023/10/16 10:54:08;;;;;;;;;;;12.80;99.90;;;;;;7312387;19;9417;-87
2023/10/16 10:56:42;;;;;;;;;;;12.50;99.90;;;;;;7318330;19;9308;-88
2023/10/16 10:59:13;;;;;;;;;;;12.30;99.90;;;;;;7319127;19;9555;-88
2023/10/16 11:01:51;;;;;;;;;;;12.00;99.90;;;;;;7314971;19;9630;-78
2023/10/16 11:04:21;;;;;;;;;;;11.60;99.90;;;;;;7313895;19;9241;-81
2023/10/16 11:06:54;;;;;;;;;;;11.30;99.90;;;;;;7315803;19;9261;-79
2023/10/16 11:09:26;;;;;;;;;;;11.20;99.90;;;;;;7313091;19;9336;-79
2023/10/16 11:11:55;;;;;;;;;;;11.20;99.90;;;;;;7313280;19;9277;-79
2023/10/16 11:14:39;;;;;;;;;;;11.10;99.90;;;;;;7314420;19;9514;-79
2023/10/16 11:17:08;;;;;;;;;;;11.00;99.90;;;;;;7311778;19;9254;-79
2023/10/16 11:19:47;;;;;;;;;;;11.00;99.90;;;;;;7314198;19;9318;-79
2023/10/16 11:22:20;;;;;;;;;;;11.00;99.90;;;;;;7318293;19;9245;-79
2023/10/16 11:24:51;;;;;;;;;;;11.00;99.90;;;;;;7315593;19;10689;-80
2023/10/16 11:27:20;;;;;;;;;;;11.00;99.90;;;;;;7309218;19;9471;-78
2023/10/16 11:29:53;;;;;;;;;;;11.20;99.90;;;;;;7311443;19;9574;-78
2023/10/16 11:32:25;;;;;;;;;;;11.20;99.90;;;;;;7315378;19;9390;-78
2023/10/16 11:35:00;;;;;;;;;;;11.30;99.90;;;;;;7315648;19;10756;-77
2023/10/16 11:37:29;;;;;;;;;;;11.40;99.90;;;;;;7315721;19;9582;-77
2023/10/16 11:40:01;;;;;;;;;;;11.50;99.90;;;;;;7316852;19;9126;-78
2023/10/16 11:42:31;;;;;;;;;;;11.70;99.90;;;;;;7317492;19;9804;-78
2023/10/16 11:45:08;;;;;;;;;;;11.90;99.90;;;;;;7314768;19;9257;-78
2023/10/16 11:47:39;;;;;;;;;;;12.10;99.90;;;;;;7312889;19;10693;-78
2023/10/16 11:50:15;;;;;;;;;;;12.20;99.90;;;;;;7317975;19;9258;-78
2023/10/16 11:52:43;;;;;;;;;;;12.20;99.90;;;;;;7313534;19;9372;-79
2023/10/16 11:55:16;;;;;;;;;;;12.30;99.90;;;;;;7317417;19;9500;-78
2023/10/16 11:57:45;;;;;;;;;;;12.30;99.90;;;;;;7315252;19;9431;-78
2023/10/16 12:00:18;;;;;;;;;;;12.40;99.90;;;;;;7316944;19;9292;-78
2023/10/16 12:02:49;;;;;;;;;;;12.50;99.90;;;;;;7315174;19;9494;-78
2023/10/16 12:05:18;;;;;;;;;;;12.60;99.90;;;;;;7312610;19;8976;-78
2023/10/16 12:07:48;;;;;;;;;;;12.70;99.90;;;;;;7315898;19;9483;-78
2023/10/16 12:10:17;;;;;;;;;;;12.60;99.90;;;;;;7315362;19;9265;-79
2023/10/16 12:12:47;;;;;;;;;;;12.60;99.90;;;;;;7315912;19;10876;-78
2023/10/16 12:15:18;;;;;;;;;;;12.60;99.90;;;;;;7313893;19;9348;-79
2023/10/16 12:17:47;;;;;;;;;;;12.60;99.90;;;;;;7316934;19;10487;-78
2023/10/16 12:20:20;;;;;;;;;;;12.60;99.90;;;;;;7319901;19;9490;-78
2023/10/16 12:22:49;;;;;;;;;;;12.60;99.90;;;;;;7318196;19;9267;-78
2023/10/16 12:25:18;;;;;;;;;;;12.60;99.90;;;;;;7314680;19;9397;-78
2023/10/16 12:27:47;;;;;;;;;;;12.40;99.90;;;;;;7315131;19;9312;-78
2023/10/16 12:30:19;;;;;;;;;;;12.30;99.90;;;;;;7315091;19;9578;-78
2023/10/16 12:32:45;;;;;;;;;;;12.20;99.90;;;;;;7313538;19;10819;-78
2023/10/16 12:35:18;;;;;;;;;;;12.20;99.90;;;;;;7313058;19;9453;-77
2023/10/16 12:37:46;;;;;;;;;;;12.10;99.90;;;;;;7317547;19;9144;-78
2023/10/16 12:40:27;;;;;;;;;;;12.10;99.90;;;;;;7313950;19;9528;-78
2023/10/16 12:42:56;;;;;;;;;;;12.10;99.90;;;;;;7312486;19;9355;-77
2023/10/16 12:45:28;;;;;;;;;;;12.10;99.90;;;;;;7314802;19;9269;-78
2023/10/16 12:47:57;;;;;;;;;;;12.20;99.90;;;;;;7316246;19;9281;-77
2023/10/16 12:50:27;;;;;;;;;;;12.20;99.90;;;;;;7314926;19;12633;-78
2023/10/16 12:52:58;;;;;;;;;;;12.10;99.90;;;;;;7313097;19;10388;-77
2023/10/16 12:55:28;;;;;;;;;;;12.10;99.90;;;;;;7313648;19;9635;-77
2023/10/16 12:57:57;;;;;;;;;;;12.10;99.90;;;;;;7311194;19;9270;-78
2023/10/16 13:00:30;;;;;;;;;;;12.10;99.90;;;;;;7315283;19;9236;-78
2023/10/16 13:02:59;;;;;;;;;;;12.10;99.90;;;;;;7318979;19;9192;-77
2023/10/16 13:05:30;;;;;;;;;;;12.00;99.90;;;;;;7315520;19;9295;-78
2023/10/16 13:08:01;;;;;;;;;;;12.00;99.90;;;;;;7311633;19;9269;-78
2023/10/16 13:10:30;;;;;;;;;;;12.10;99.90;;;;;;7312659;19;9294;-77
2023/10/16 13:12:59;;;;;;;;;;;12.10;99.90;;;;;;7316971;19;9380;-77
2023/10/16 13:15:31;;;;;;;;;;;12.10;99.90;;;;;;7319238;19;9118;-77
2023/10/16 13:18:02;;;;;;;;;;;12.00;99.90;;;;;;7315891;19;9267;-77
2023/10/16 13:20:32;;;;;;;;;;;12.10;99.90;;;;;;7314429;19;9564;-77
2023/10/16 13:23:05;;;;;;;;;;;12.20;99.90;;;;;;7313298;19;9473;-77
2023/10/16 13:25:34;;;;;;;;;;;12.20;99.90;;;;;;7313814;19;9258;-77
2023/10/16 13:28:07;;;;;;;;;;;12.20;99.90;;;;;;7312161;19;9238;-77
2023/10/16 13:30:38;;;;;;;;;;;12.30;99.90;;;;;;7313271;19;9043;-77
2023/10/16 13:33:09;;;;;;;;;;;12.30;99.90;;;;;;7310683;19;9117;-78
2023/10/16 13:35:38;;;;;;;;;;;12.40;99.90;;;;;;7315308;19;9622;-77
2023/10/16 13:38:07;;;;;;;;;;;12.40;99.90;;;;;;7311084;19;9339;-77
2023/10/16 13:40:36;;;;;;;;;;;12.40;99.90;;;;;;7314411;19;9239;-77
2023/10/16 13:43:10;;;;;;;;;;;12.40;99.90;;;;;;7314904;19;9477;-78
2023/10/16 13:45:42;;;;;;;;;;;12.40;99.90;;;;;;7313011;19;14651;-77
2023/10/16 13:48:12;;;;;;;;;;;12.50;99.90;;;;;;7311933;19;9535;-77
2023/10/16 13:50:47;;;;;;;;;;;12.50;99.90;;;;;;7311891;19;9295;-77
2023/10/16 13:53:19;;;;;;;;;;;12.50;99.90;;;;;;7313075;19;9215;-77
2023/10/16 13:55:54;;;;;;;;;;;12.50;99.90;;;;;;7310030;19;9798;-76
2023/10/16 13:58:23;;;;;;;;;;;12.50;99.90;;;;;;7318475;19;10009;-78
2023/10/16 14:00:55;;;;;;;;;;;12.60;99.90;;;;;;7318546;19;9495;-77
2023/10/16 14:03:24;;;;;;;;;;;12.50;99.90;;;;;;7316284;19;9129;-82
2023/10/16 14:05:54;;;;;;;;;;;12.50;99.90;;;;;;7312968;19;9280;-82
2023/10/16 14:08:30;;;;;;;;;;;12.50;99.90;;;;;;7316586;19;9237;-83
2023/10/16 14:11:00;;;;;;;;;;;12.40;99.90;;;;;;7313411;19;9386;-82
2023/10/16 14:13:32;;;;;;;;;;;12.40;99.90;;;;;;7312063;19;9274;-82
2023/10/16 14:16:11;;;;;;;;;;;12.40;99.90;;;;;;7316349;19;9238;-81
2023/10/16 14:18:42;;;;;;;;;;;12.40;99.90;;;;;;7313712;19;9419;-81
2023/10/16 14:21:12;;;;;;;;;;;12.40;99.90;;;;;;7316743;19;9313;-81
2023/10/16 14:23:43;;;;;;;;;;;12.30;99.90;;;;;;7318904;19;9272;-83
2023/10/16 14:26:21;;;;;;;;;;;12.30;99.90;;;;;;7319635;19;9482;-80
2023/10/16 14:28:54;;;;;;;;;;;12.30;99.90;;;;;;7319277;19;9307;-82
2023/10/16 14:31:28;;;;;;;;;;;12.30;99.90;;;;;;7313688;19;12106;-79
2023/10/16 14:33:58;;;;;;;;;;;12.30;99.90;;;;;;7314367;19;10643;-77
2023/10/16 14:36:29;;;;;;;;;;;12.20;99.90;;;;;;7311853;19;9633;-75
2023/10/16 14:38:59;;;;;;;;;;;12.20;99.90;;;;;;7316409;19;9273;-84
2023/10/16 14:41:29;;;;;;;;;;;12.20;99.90;;;;;;7317413;19;9279;-79
2023/10/16 14:43:58;;;;;;;;;;;12.10;99.90;;;;;;7315531;19;9455;-80
2023/10/16 14:46:30;;;;;;;;;;;12.10;99.90;;;;;;7316842;19;9242;-79
2023/10/16 14:48:59;;;;;;;;;;;12.10;99.90;;;;;;7318618;19;9258;-81
2023/10/16 14:51:30;;;;;;;;;;;12.00;99.90;;;;;;7315307;19;9493;-80
2023/10/16 14:54:00;;;;;;;;;;;12.00;99.90;;;;;;7316315;19;9633;-80
2023/10/16 14:56:29;;;;;;;;;;;12.00;99.90;;;;;;7316681;19;9121;-78
2023/10/16 14:58:58;;;;;;;;;;;12.00;99.90;;;;;;7317252;19;9261;-79
2023/10/16 15:01:33;;;;;;;;;;;11.90;99.90;;;;;;7310488;19;9139;-79
2023/10/16 15:04:02;;;;;;;;;;;11.90;99.90;;;;;;7316182;19;9504;-80
2023/10/16 15:06:31;;;;;;;;;;;11.80;99.90;;;;;;7313809;19;9392;-78
2023/10/16 15:09:00;;;;;;;;;;;11.90;99.90;;;;;;7313607;19;9368;-78
2023/10/16 15:11:30;;;;;;;;;;;11.80;99.90;;;;;;7312070;19;9262;-77
2023/10/16 15:14:01;;;;;;;;;;;11.70;99.90;;;;;;7312108;19;9479;-82
2023/10/16 15:16:32;;;;;;;;;;;11.60;99.90;;;;;;7309257;19;9467;-81
2023/10/16 15:19:07;;;;;;;;;;;11.60;99.90;;;;;;7314224;19;9496;-79
2023/10/16 15:21:36;;;;;;;;;;;11.50;99.90;;;;;;7317052;19;9249;-79
2023/10/16 15:24:05;;;;;;;;;;;11.50;99.90;;;;;;7316430;19;9223;-79
2023/10/16 15:26:34;;;;;;;;;;;11.50;99.90;;;;;;7315906;19;9553;-79
2023/10/16 15:29:04;;;;;;;;;;;11.40;99.90;;;;;;7313151;19;11022;-79
2023/10/16 15:31:35;;;;;;;;;;;11.30;99.90;;;;;;7315936;19;9327;-78
2023/10/16 15:34:08;;;;;;;;;;;11.30;99.90;;;;;;7315017;19;9656;-78
2023/10/16 15:36:38;;;;;;;;;;;11.20;99.90;;;;;;7313110;19;9616;-76
2023/10/16 15:39:15;;;;;;;;;;;11.20;99.90;;;;;;7312000;19;9583;-80
2023/10/16 15:41:44;;;;;;;;;;;11.10;99.90;;;;;;7311626;19;9457;-81
2023/10/16 15:44:14;;;;;;;;;;;11.00;99.90;;;;;;7310988;19;9276;-81
2023/10/16 15:46:45;;;;;;;;;;;10.90;99.90;;;;;;7316384;19;9179;-80
2023/10/16 15:49:14;;;;;;;;;;;10.90;99.90;;;;;;7313821;19;9527;-80
2023/10/16 15:51:45;;;;;;;;;;;10.70;99.90;;;;;;7308757;19;9334;-80
2023/10/16 15:54:15;;;;;;;;;;;10.70;99.90;;;;;;7309892;19;9606;-78
2023/10/16 15:56:44;;;;;;;;;;;10.70;99.90;;;;;;7306026;19;9082;-80
2023/10/16 15:59:13;;;;;;;;;;;10.60;99.90;;;;;;7314033;19;9237;-79
2023/10/16 16:01:48;;;;;;;;;;;10.50;99.90;;;;;;7316189;19;9238;-78
2023/10/16 16:04:20;;;;;;;;;;;10.40;99.90;;;;;;7310353;19;9237;-78
2023/10/16 16:06:49;;;;;;;;;;;10.40;99.90;;;;;;7313148;19;9311;-78
2023/10/16 16:09:19;;;;;;;;;;;10.40;99.90;;;;;;7309398;19;9131;-80
2023/10/16 16:11:48;;;;;;;;;;;10.30;99.90;;;;;;7311086;19;9292;-80
2023/10/16 16:14:17;;;;;;;;;;;10.20;99.90;;;;;;7315036;19;9266;-81
2023/10/16 16:16:51;;;;;;;;;;;10.10;99.90;;;;;;7313515;19;9131;-81
2023/10/16 16:19:22;;;;;;;;;;;10.10;99.90;;;;;;7318415;19;9133;-84
2023/10/16 16:21:52;;;;;;;;;;;10.00;99.90;;;;;;7313035;19;9651;-83